Time;durP1;ratioP1;P1;durP2;ratioP2;P2;SDS_P1;SDS_P2;PMS_P1;PMS_P2;Temp;Humidity;BMP_temperature;BMP_pressure;BME280_temperature;BME280_humidity;BME280_pressure;Samples;Min_cycle;Max_cycle;Signal;HPM_P1;HPM_P2
2024/01/06 00:01:40;;;;;;;5.93;4.40;;;;;;;-141.84;100.00;119224.81;5046672;28;20316;-61
2024/01/06 00:04:09;;;;;;;8.13;4.73;;;;;;;-141.84;100.00;119224.81;5046450;28;20796;-61
2024/01/06 00:06:37;;;;;;;7.97;4.83;;;;;;;-141.84;100.00;119224.81;5047890;28;20201;-62
2024/01/06 00:09:07;;;;;;;6.20;4.43;;;;;;;-141.84;100.00;119224.81;5048981;28;20224;-60
2024/01/06 00:11:36;;;;;;;7.10;4.97;;;;;;;-141.84;100.00;119224.81;5056265;28;20231;-62
2024/01/06 00:14:04;;;;;;;6.20;4.40;;;4.00;99.90;;;-141.84;100.00;119224.81;5051387;28;20232;-63
2024/01/06 00:16:33;;;;;;;6.13;4.87;;;4.10;99.90;;;-141.84;100.00;119224.81;5052936;28;20659;-60
2024/01/06 00:19:02;;;;;;;6.20;4.70;;;4.10;99.90;;;-141.84;100.00;119224.81;5056250;28;20284;-59
2024/01/06 00:21:30;;;;;;;6.83;4.80;;;4.10;99.90;;;-141.84;100.00;119224.81;5057621;28;20212;-60
2024/01/06 00:23:58;;;;;;;7.73;4.97;;;4.10;99.90;;;-141.84;100.00;119224.81;5052554;28;20221;-62
2024/01/06 00:26:31;;;;;;;5.93;4.57;;;;;;;-141.84;100.00;119224.81;5056041;28;20228;-60
2024/01/06 00:28:59;;;;;;;10.17;5.20;;;;;;;-141.84;100.00;119224.81;5058998;28;20858;-66
2024/01/06 00:31:28;;;;;;;6.53;4.57;;;;;;;-141.84;100.00;119224.81;5052811;28;20235;-60
2024/01/06 00:33:57;;;;;;;7.93;4.70;;;;;;;-141.84;100.00;119224.81;5056773;28;20300;-60
2024/01/06 00:36:26;;;;;;;6.80;4.87;;;;;;;-141.84;100.00;119224.81;5048792;28;20283;-60
2024/01/06 00:38:54;;;;;;;8.57;4.80;;;3.90;99.90;;;-141.84;100.00;119224.81;5049916;28;20224;-61
2024/01/06 00:41:22;;;;;;;7.63;4.90;;;3.90;99.90;;;-141.84;100.00;119224.81;5043256;28;20221;-61
2024/01/06 00:43:54;;;;;;;5.70;4.97;;;;;;;-141.84;100.00;119224.81;5042908;28;20690;-60
2024/01/06 00:46:23;;;;;;;7.37;4.90;;;;;;;-141.84;100.00;119224.81;5045589;28;20185;-60
2024/01/06 00:48:51;;;;;;;7.50;5.30;;;;;;;-141.84;100.00;119224.81;5046923;28;20259;-60
2024/01/06 00:51:20;;;;;;;6.67;4.53;;;;;;;-141.84;100.00;119224.81;5043779;28;20220;-60
2024/01/06 00:53:49;;;;;;;7.33;5.27;;;3.80;99.90;;;-141.84;100.00;119224.81;5046033;28;20279;-60
2024/01/06 00:56:17;;;;;;;7.27;4.97;;;3.90;99.90;;;-141.84;100.00;119224.81;5049098;28;20225;-60
2024/01/06 00:58:45;;;;;;;7.33;5.27;;;3.90;99.90;;;-141.84;100.00;119224.81;5053061;28;20256;-61
2024/01/06 01:01:15;;;;;;;6.47;4.70;;;3.90;99.90;;;-141.84;100.00;119224.81;5053145;28;20194;-60
2024/01/06 01:03:43;;;;;;;7.67;4.70;;;3.90;99.90;;;-141.84;100.00;119224.81;5053720;28;20201;-60
2024/01/06 01:06:12;;;;;;;5.97;4.77;;;3.80;99.90;;;-141.84;100.00;119224.81;5052682;28;20221;-60
2024/01/06 01:08:40;;;;;;;6.17;4.80;;;3.80;99.90;;;-141.84;100.00;119224.81;5044668;28;20225;-60
2024/01/06 01:11:13;;;;;;;8.10;5.40;;;;;;;-141.84;100.00;119224.81;5052805;28;20616;-60
2024/01/06 01:13:42;;;;;;;6.67;5.13;;;;;;;-141.84;100.00;119224.81;5052415;28;20291;-60
2024/01/06 01:16:11;;;;;;;6.23;5.03;;;;;;;-141.84;100.00;119224.81;5050195;28;20220;-59
2024/01/06 01:18:40;;;;;;;8.00;5.60;;;;;;;-141.84;100.00;119224.81;5043895;28;20675;-60
2024/01/06 01:21:09;;;;;;;6.30;4.07;;;;;;;-141.84;100.00;119224.81;5047622;28;20222;-60
2024/01/06 01:23:38;;;;;;;8.40;4.60;;;;;;;-141.84;100.00;119224.81;5052288;28;20242;-60
2024/01/06 01:26:07;;;;;;;7.50;5.47;;;;;;;-141.84;100.00;119224.81;5052586;28;20309;-60
2024/01/06 01:28:36;;;;;;;6.60;4.90;;;;;;;-141.84;100.00;119224.81;5052016;28;20318;-60
2024/01/06 01:31:05;;;;;;;10.17;4.80;;;;;;;-141.84;100.00;119224.81;5052436;28;20224;-59
2024/01/06 01:33:33;;;;;;;5.90;4.57;;;3.40;99.90;;;-141.84;100.00;119224.81;5052359;28;20201;-60
2024/01/06 01:36:04;;;;;;;8.17;5.00;;;3.60;99.90;;;-141.84;100.00;119224.81;5050496;28;20230;-59
2024/01/06 01:38:32;;;;;;;7.20;4.70;;;3.50;99.90;;;-141.84;100.00;119224.81;5048426;28;20279;-60
2024/01/06 01:41:00;;;;;;;6.37;5.20;;;3.50;99.90;;;-141.84;100.00;119224.81;5043378;28;20286;-60
2024/01/06 01:43:30;;;;;;;9.87;5.63;;;3.50;99.90;;;-141.84;100.00;119224.81;5050754;28;20237;-60
2024/01/06 01:45:59;;;;;;;8.80;5.07;;;3.50;99.90;;;-141.84;100.00;119224.81;5044030;28;20213;-61
2024/01/06 01:48:27;;;;;;;8.00;5.40;;;3.50;99.90;;;-141.84;100.00;119224.81;5045657;28;20237;-61
2024/01/06 01:50:57;;;;;;;8.83;5.27;;;3.50;99.90;;;-141.84;100.00;119224.81;5044175;28;20241;-60
2024/01/06 01:53:27;;;;;;;6.90;5.10;;;3.40;99.90;;;-141.84;100.00;119224.81;5041708;28;20315;-60
2024/01/06 01:55:56;;;;;;;7.40;5.77;;;3.40;99.90;;;-141.84;100.00;119224.81;5051552;28;20737;-60
2024/01/06 01:58:25;;;;;;;8.87;6.50;;;3.50;99.90;;;-141.84;100.00;119224.81;5051965;28;20263;-59
2024/01/06 02:00:54;;;;;;;7.63;5.73;;;3.40;99.90;;;-141.84;100.00;119224.81;5052324;28;20298;-60
2024/01/06 02:03:25;;;;;;;7.07;5.67;;;3.50;99.90;;;-141.84;100.00;119224.81;5043696;28;20739;-60
2024/01/06 02:05:54;;;;;;;7.50;5.77;;;3.50;99.90;;;-141.84;100.00;119224.81;5051800;28;20229;-60
2024/01/06 02:08:22;;;;;;;6.43;5.07;;;3.50;99.90;;;-141.84;100.00;119224.81;5051559;28;20422;-60
2024/01/06 02:10:54;;;;;;;7.33;5.20;;;3.40;99.90;;;-141.84;100.00;119224.81;5051734;28;20228;-59
2024/01/06 02:13:22;;;;;;;7.17;5.50;;;3.50;99.90;;;-141.84;100.00;119224.81;5051535;28;20243;-60
2024/01/06 02:15:52;;;;;;;8.30;5.43;;;3.50;99.90;;;-141.84;100.00;119224.81;5051847;28;20200;-60
2024/01/06 02:18:21;;;;;;;7.27;5.40;;;3.50;99.90;;;-141.84;100.00;119224.81;5050928;28;20255;-60
2024/01/06 02:20:52;;;;;;;7.13;5.13;;;3.50;99.90;;;-141.84;100.00;119224.81;5051254;28;20233;-61
2024/01/06 02:23:22;;;;;;;8.03;5.43;;;3.50;99.90;;;-141.84;100.00;119224.81;5043230;28;20293;-63
2024/01/06 02:25:50;;;;;;;8.30;5.80;;;3.60;99.90;;;-141.84;100.00;119224.81;5051141;28;20248;-60
2024/01/06 02:28:19;;;;;;;8.47;5.60;;;3.60;99.90;;;-141.84;100.00;119224.81;5051154;28;20626;-60
2024/01/06 02:30:47;;;;;;;7.40;5.23;;;3.60;99.90;;;-141.84;100.00;119224.81;5051499;28;20221;-60
2024/01/06 02:33:16;;;;;;;7.50;5.10;;;3.60;99.90;;;-141.84;100.00;119224.81;5050949;28;20224;-60
2024/01/06 02:35:45;;;;;;;6.47;5.43;;;3.60;99.90;;;-141.84;100.00;119224.81;5050599;28;20236;-60
2024/01/06 02:38:13;;;;;;;6.83;5.37;;;3.50;99.90;;;-141.84;100.00;119224.81;5049517;28;20776;-60
2024/01/06 02:40:43;;;;;;;7.00;5.80;;;3.50;99.90;;;-141.84;100.00;119224.81;5047300;28;20229;-60
2024/01/06 02:43:12;;;;;;;7.67;5.60;;;3.50;99.90;;;-141.84;100.00;119224.81;5050899;28;20209;-59
2024/01/06 02:45:40;;;;;;;7.13;5.30;;;3.50;99.90;;;-141.84;100.00;119224.81;5051394;28;20274;-62
2024/01/06 02:48:08;;;;;;;8.47;5.20;;;3.50;99.90;;;-141.84;100.00;119224.81;5050748;28;20228;-60
2024/01/06 02:50:37;;;;;;;7.87;5.20;;;3.50;99.90;;;-141.84;100.00;119224.81;5042095;28;20230;-60
2024/01/06 02:53:05;;;;;;;8.93;5.60;;;3.40;99.90;;;-141.84;100.00;119224.81;5050714;28;20358;-60
2024/01/06 02:55:33;;;;;;;6.80;5.17;;;3.40;99.90;;;-141.84;100.00;119224.81;5050759;28;20319;-60
2024/01/06 02:58:03;;;;;;;7.47;5.47;;;3.30;99.90;;;-141.84;100.00;119224.81;5043420;28;20206;-62
2024/01/06 03:00:31;;;;;;;8.13;5.97;;;3.30;99.90;;;-141.84;100.00;119224.81;5051419;28;20213;-61
2024/01/06 03:02:59;;;;;;;9.17;5.60;;;3.40;99.90;;;-141.84;100.00;119224.81;5050377;28;20248;-61
2024/01/06 03:05:28;;;;;;;7.90;5.57;;;3.40;99.90;;;-141.84;100.00;119224.81;5050309;28;20264;-60
2024/01/06 03:07:56;;;;;;;9.03;5.33;;;3.30;99.90;;;-141.84;100.00;119224.81;5051006;28;20229;-60
2024/01/06 03:10:24;;;;;;;10.63;5.60;;;3.20;99.90;;;-141.84;100.00;119224.81;5050528;28;20287;-60
2024/01/06 03:12:53;;;;;;;7.13;5.83;;;3.20;99.90;;;-141.84;100.00;119224.81;5050979;28;20256;-60
2024/01/06 03:15:24;;;;;;;6.40;5.73;;;3.20;99.90;;;-141.84;100.00;119224.81;5050191;28;20255;-60
2024/01/06 03:17:52;;;;;;;8.17;5.77;;;3.10;99.90;;;-141.84;100.00;119224.81;5050315;28;20231;-60
2024/01/06 03:20:20;;;;;;;8.17;5.37;;;3.10;99.90;;;-141.84;100.00;119224.81;5050462;28;20221;-60
2024/01/06 03:22:49;;;;;;;6.93;5.57;;;3.10;99.90;;;-141.84;100.00;119224.81;5050350;28;20713;-60
2024/01/06 03:25:17;;;;;;;8.93;6.07;;;3.10;99.90;;;-141.84;100.00;119224.81;5050294;28;20203;-59
2024/01/06 03:27:45;;;;;;;8.43;5.90;;;3.10;99.90;;;-141.84;100.00;119224.81;5051077;28;20204;-61
2024/01/06 03:30:14;;;;;;;9.57;6.10;;;3.10;99.90;;;-141.84;100.00;119224.81;5050005;28;20560;-60
2024/01/06 03:32:44;;;;;;;10.20;6.03;;;3.20;99.90;;;-141.84;100.00;119224.81;5049802;28;20844;-60
2024/01/06 03:35:12;;;;;;;7.83;6.10;;;3.30;99.90;;;-141.84;100.00;119224.81;5049665;28;20762;-60
2024/01/06 03:37:41;;;;;;;7.87;5.80;;;3.30;99.90;;;-141.84;100.00;119224.81;5050184;28;20232;-61
2024/01/06 03:40:10;;;;;;;9.20;5.60;;;3.30;99.90;;;-141.84;100.00;119224.81;5050231;28;20254;-59
2024/01/06 03:42:39;;;;;;;7.67;6.07;;;3.20;99.90;;;-141.84;100.00;119224.81;5050744;28;20193;-60
2024/01/06 03:45:08;;;;;;;6.50;5.17;;;3.10;99.90;;;-141.84;100.00;119224.81;5049794;28;20282;-59
2024/01/06 03:47:36;;;;;;;8.23;5.67;;;3.10;99.90;;;-141.84;100.00;119224.81;5049750;28;20240;-60
2024/01/06 03:50:07;;;;;;;7.53;5.10;;;3.10;99.90;;;-141.84;100.00;119224.81;5041879;28;20225;-60
2024/01/06 03:52:35;;;;;;;9.53;5.40;;;3.00;99.90;;;-141.84;100.00;119224.81;5049892;28;20324;-60
2024/01/06 03:55:04;;;;;;;8.50;5.57;;;3.10;99.90;;;-141.84;100.00;119224.81;5050340;28;20196;-60
2024/01/06 03:57:33;;;;;;;6.30;5.50;;;3.00;99.90;;;-141.84;100.00;119224.81;5050321;28;20296;-60
2024/01/06 04:00:01;;;;;;;9.10;5.90;;;3.00;99.90;;;-141.84;100.00;119224.81;5049743;28;20263;-60
2024/01/06 04:02:29;;;;;;;9.10;5.80;;;3.00;99.90;;;-141.84;100.00;119224.81;5049860;28;20232;-60
2024/01/06 04:04:57;;;;;;;7.67;5.37;;;3.00;99.90;;;-141.84;100.00;119224.81;5049470;28;20789;-60
2024/01/06 04:07:27;;;;;;;8.60;5.93;;;3.00;99.90;;;-141.84;100.00;119224.81;5041655;28;20232;-60
2024/01/06 04:09:55;;;;;;;8.20;5.53;;;3.00;99.90;;;-141.84;100.00;119224.81;5049841;28;20632;-60
2024/01/06 04:12:23;;;;;;;7.23;5.33;;;3.00;99.90;;;-141.84;100.00;119224.81;5044437;28;20224;-60
2024/01/06 04:14:52;;;;;;;9.37;6.27;;;2.90;99.90;;;-141.84;100.00;119224.81;5050790;28;20253;-61
2024/01/06 04:17:21;;;;;;;9.17;6.00;;;2.90;99.90;;;-141.84;100.00;119224.81;5054109;28;20225;-63
2024/01/06 04:19:50;;;;;;;13.43;7.47;;;2.90;99.90;;;-141.84;100.00;119224.81;5053584;28;20622;-61
2024/01/06 04:22:18;;;;;;;10.20;7.27;;;2.90;99.90;;;-141.84;100.00;119224.81;5053677;28;20279;-61
2024/01/06 04:24:48;;;;;;;13.00;7.60;;;2.90;99.90;;;-141.84;100.00;119224.81;5054197;28;20198;-60
2024/01/06 04:27:16;;;;;;;9.03;6.50;;;2.90;99.90;;;-141.84;100.00;119224.81;5053152;28;20227;-60
2024/01/06 04:29:44;;;;;;;10.23;6.20;;;2.90;99.90;;;-141.84;100.00;119224.81;5053586;28;20225;-60
2024/01/06 04:32:13;;;;;;;10.47;6.80;;;2.90;99.90;;;-141.84;100.00;119224.81;5053173;28;20278;-60
2024/01/06 04:34:41;;;;;;;8.20;6.17;;;2.90;99.90;;;-141.84;100.00;119224.81;5053164;28;20271;-60
2024/01/06 04:37:10;;;;;;;8.37;7.27;;;3.00;99.90;;;-141.84;100.00;119224.81;5053604;28;20193;-60
2024/01/06 04:39:38;;;;;;;8.80;6.20;;;3.00;99.90;;;-141.84;100.00;119224.81;5054298;28;20197;-60
2024/01/06 04:42:08;;;;;;;9.07;6.43;;;3.00;99.90;;;-141.84;100.00;119224.81;5053210;28;20221;-61
2024/01/06 04:44:37;;;;;;;6.33;5.43;;;3.00;99.90;;;-141.84;100.00;119224.81;5053513;28;20720;-61
2024/01/06 04:47:06;;;;;;;7.17;5.80;;;3.00;99.90;;;-141.84;100.00;119224.81;5053238;28;20312;-62
2024/01/06 04:49:34;;;;;;;7.23;5.60;;;2.90;99.90;;;-141.84;100.00;119224.81;5053413;28;20229;-61
2024/01/06 04:52:02;;;;;;;7.83;6.30;;;2.90;99.90;;;-141.84;100.00;119224.81;5053387;28;20283;-61
2024/01/06 04:54:31;;;;;;;7.70;6.30;;;2.90;99.90;;;-141.84;100.00;119224.81;5053039;28;20235;-60
2024/01/06 04:57:00;;;;;;;7.00;5.93;;;2.90;99.90;;;-141.84;100.00;119224.81;5053028;28;20220;-61
2024/01/06 04:59:29;;;;;;;7.90;6.43;;;2.90;99.90;;;-141.84;100.00;119224.81;5053183;28;20264;-61
2024/01/06 05:01:59;;;;;;;7.07;6.00;;;2.90;99.90;;;-141.84;100.00;119224.81;5053062;28;20228;-63
2024/01/06 05:04:28;;;;;;;8.47;6.60;;;2.80;99.90;;;-141.84;100.00;119224.81;5052834;28;20252;-61
2024/01/06 05:06:56;;;;;;;9.80;6.27;;;2.80;99.90;;;-141.84;100.00;119224.81;5052359;28;20242;-60
2024/01/06 05:09:26;;;;;;;8.70;6.20;;;2.80;99.90;;;-141.84;100.00;119224.81;5052547;28;20848;-60
2024/01/06 05:11:54;;;;;;;7.37;5.77;;;2.80;99.90;;;-141.84;100.00;119224.81;5052508;28;20316;-61
2024/01/06 05:14:22;;;;;;;8.90;6.70;;;2.80;99.90;;;-141.84;100.00;119224.81;5052671;28;20275;-60
2024/01/06 05:16:52;;;;;;;6.60;5.80;;;2.70;99.90;;;-141.84;100.00;119224.81;5044260;28;20226;-60
2024/01/06 05:19:21;;;;;;;7.03;5.80;;;2.70;99.90;;;-141.84;100.00;119224.81;5052533;28;20801;-60
2024/01/06 05:21:50;;;;;;;7.60;6.30;;;2.70;99.90;;;-141.84;100.00;119224.81;5052729;28;20195;-61
2024/01/06 05:24:19;;;;;;;8.03;6.20;;;2.70;99.90;;;-141.84;100.00;119224.81;5052192;28;20217;-60
2024/01/06 05:26:48;;;;;;;7.40;6.30;;;2.70;99.90;;;-141.84;100.00;119224.81;5052039;28;20247;-61
2024/01/06 05:29:16;;;;;;;8.43;6.60;;;2.70;99.90;;;-141.84;100.00;119224.81;5052259;28;20224;-61
2024/01/06 05:31:46;;;;;;;9.57;5.90;;;2.70;99.90;;;-141.84;100.00;119224.81;5052541;28;20688;-60
2024/01/06 05:34:15;;;;;;;7.80;6.20;;;2.60;99.90;;;-141.84;100.00;119224.81;5052016;28;20240;-61
2024/01/06 05:36:44;;;;;;;8.33;6.37;;;2.60;99.90;;;-141.84;100.00;119224.81;5052557;28;20558;-60
2024/01/06 05:39:12;;;;;;;8.70;6.90;;;2.60;99.90;;;-141.84;100.00;119224.81;5047468;28;20282;-60
2024/01/06 05:41:41;;;;;;;10.43;6.93;;;2.60;99.90;;;-141.84;100.00;119224.81;5051783;28;20228;-60
2024/01/06 05:44:10;;;;;;;10.97;7.40;;;2.70;99.90;;;-141.84;100.00;119224.81;5051829;28;20236;-60
2024/01/06 05:46:38;;;;;;;7.37;6.40;;;2.70;99.90;;;-141.84;100.00;119224.81;5051980;28;20236;-60
2024/01/06 05:49:06;;;;;;;7.93;6.07;;;2.60;99.90;;;-141.84;100.00;119224.81;5052069;28;20380;-59
2024/01/06 05:51:36;;;;;;;9.60;6.60;;;2.60;99.90;;;-141.84;100.00;119224.81;5044220;28;20203;-60
2024/01/06 05:54:05;;;;;;;6.57;5.87;;;2.50;99.90;;;-141.84;100.00;119224.81;5051704;28;20223;-60
2024/01/06 05:56:33;;;;;;;9.17;6.20;;;2.50;99.90;;;-141.84;100.00;119224.81;5051535;28;20253;-60
2024/01/06 05:59:02;;;;;;;8.77;6.50;;;2.50;99.90;;;-141.84;100.00;119224.81;5052131;28;20223;-59
2024/01/06 06:01:31;;;;;;;8.87;6.40;;;2.50;99.90;;;-141.84;100.00;119224.81;5051979;28;20250;-59
2024/01/06 06:03:59;;;;;;;8.57;6.67;;;2.40;99.90;;;-141.84;100.00;119224.81;5051963;28;20221;-59
2024/01/06 06:06:28;;;;;;;10.13;6.80;;;2.40;99.90;;;-141.84;100.00;119224.81;5049025;28;20266;-60
2024/01/06 06:08:57;;;;;;;9.10;6.47;;;2.40;99.90;;;-141.84;100.00;119224.81;5050991;28;20225;-60
2024/01/06 06:11:26;;;;;;;9.10;6.67;;;2.40;99.90;;;-141.84;100.00;119224.81;5051356;28;20227;-60
2024/01/06 06:13:54;;;;;;;8.27;6.70;;;2.40;99.90;;;-141.84;100.00;119224.81;5051391;28;20608;-60
2024/01/06 06:16:22;;;;;;;12.20;7.00;;;2.40;99.90;;;-141.84;100.00;119224.81;5050729;28;20790;-60
2024/01/06 06:18:50;;;;;;;10.30;7.00;;;2.40;99.90;;;-141.84;100.00;119224.81;5051843;28;20664;-59
2024/01/06 06:21:19;;;;;;;10.83;7.53;;;2.40;99.90;;;-141.84;100.00;119224.81;5051202;28;20225;-60
2024/01/06 06:23:47;;;;;;;11.03;7.57;;;2.40;99.90;;;-141.84;100.00;119224.81;5051396;28;20226;-59
2024/01/06 06:26:17;;;;;;;9.47;7.43;;;2.40;99.90;;;-141.84;100.00;119224.81;5051374;28;20255;-60
2024/01/06 06:28:45;;;;;;;8.70;6.67;;;2.40;99.90;;;-141.84;100.00;119224.81;5051294;28;20312;-60
2024/01/06 06:31:13;;;;;;;10.13;6.53;;;2.40;99.90;;;-141.84;100.00;119224.81;5041716;28;20356;-65
2024/01/06 06:33:42;;;;;;;8.47;6.47;;;2.50;99.90;;;-141.84;100.00;119224.81;5050534;28;20219;-60
2024/01/06 06:36:11;;;;;;;10.03;7.23;;;2.50;99.90;;;-141.84;100.00;119224.81;5050452;28;20271;-63
2024/01/06 06:38:39;;;;;;;9.50;6.80;;;2.60;99.90;;;-141.84;100.00;119224.81;5043522;28;20621;-64
2024/01/06 06:41:07;;;;;;;8.73;7.17;;;2.60;99.90;;;-141.84;100.00;119224.81;5054219;28;20220;-60
2024/01/06 06:43:37;;;;;;;7.23;6.40;;;2.60;99.90;;;-141.84;100.00;119224.81;5051168;28;20229;-60
2024/01/06 06:46:05;;;;;;;8.03;6.73;;;2.60;99.90;;;-141.84;100.00;119224.81;5051429;28;20233;-61
2024/01/06 06:48:35;;;;;;;8.40;6.60;;;2.60;99.90;;;-141.84;100.00;119224.81;5040334;28;20702;-62
2024/01/06 06:51:04;;;;;;;9.17;6.97;;;2.60;99.90;;;-141.84;100.00;119224.81;5051141;28;20224;-61
2024/01/06 06:53:32;;;;;;;10.83;7.73;;;2.60;99.90;;;-141.84;100.00;119224.81;5052171;28;20241;-59
2024/01/06 06:56:01;;;;;;;10.73;8.30;;;2.60;99.90;;;-141.84;100.00;119224.81;5051872;28;20290;-59
2024/01/06 06:58:29;;;;;;;10.43;8.20;;;2.60;99.90;;;-141.84;100.00;119224.81;5050524;28;20708;-59
2024/01/06 07:00:59;;;;;;;10.10;7.37;;;2.70;99.90;;;-141.84;100.00;119224.81;5048846;28;20209;-60
2024/01/06 07:03:27;;;;;;;10.17;7.10;;;2.80;99.90;;;-141.84;100.00;119224.81;5050559;28;20305;-59
2024/01/06 07:05:55;;;;;;;9.43;7.77;;;2.90;99.90;;;-141.84;100.00;119224.81;5050265;28;20704;-60
2024/01/06 07:08:24;;;;;;;8.77;6.70;;;3.00;99.90;;;-141.84;100.00;119224.81;5050344;28;20231;-62
2024/01/06 07:10:52;;;;;;;9.87;7.60;;;3.00;99.90;;;-141.84;100.00;119224.81;5050735;28;20840;-60
2024/01/06 07:13:20;;;;;;;9.20;7.23;;;3.10;99.90;;;-141.84;100.00;119224.81;5050396;28;20286;-60
2024/01/06 07:15:48;;;;;;;11.47;7.30;;;3.10;99.90;;;-141.84;100.00;119224.81;5051333;28;20246;-56
2024/01/06 07:18:23;;;;;;;11.07;7.47;;;3.20;99.90;;;-141.84;100.00;119224.81;5050421;28;20251;-57
2024/01/06 07:20:51;;;;;;;8.70;7.00;;;3.20;99.90;;;-141.84;100.00;119224.81;5050452;28;20235;-53
2024/01/06 07:23:19;;;;;;;13.50;7.30;;;3.20;99.90;;;-141.84;100.00;119224.81;5050449;28;20221;-56
2024/01/06 07:25:49;;;;;;;9.37;7.03;;;3.30;99.90;;;-141.84;100.00;119224.81;5050785;28;20229;-54
2024/01/06 07:28:17;;;;;;;10.87;7.17;;;3.30;99.90;;;-141.84;100.00;119224.81;5050016;28;20201;-60
2024/01/06 07:30:45;;;;;;;9.30;7.10;;;3.30;99.90;;;-141.84;100.00;119224.81;5050555;28;20201;-55
2024/01/06 07:33:14;;;;;;;12.07;8.13;;;3.40;99.90;;;-141.84;100.00;119224.81;5049776;28;20286;-56
2024/01/06 07:35:44;;;;;;;13.63;8.20;;;3.40;99.90;;;-141.84;100.00;119224.81;5050109;28;20317;-57
2024/01/06 07:38:12;;;;;;;10.60;7.97;;;3.50;99.90;;;-141.84;100.00;119222.75;5048937;28;20243;-57
2024/01/06 07:40:41;;;;;;;11.83;8.20;;;3.50;99.90;;;-141.84;100.00;119222.75;5013528;28;20237;-56
2024/01/06 07:43:09;;;;;;;11.47;7.60;;;3.50;99.90;;;-141.84;100.00;119222.75;5050063;28;20209;-56
2024/01/06 07:45:38;;;;;;;9.90;7.10;;;3.60;99.90;;;-141.84;100.00;118956.03;5051075;28;20259;-57
2024/01/06 07:48:08;;;;;;;9.10;7.47;;;3.60;99.90;;;-141.84;100.00;118422.72;5049822;28;20704;-58
2024/01/06 07:50:36;;;;;;;9.33;7.10;;;3.60;99.90;;;-141.84;100.00;117889.44;5054458;28;20228;-55
2024/01/06 07:53:06;;;;;;;13.57;7.80;;;3.70;99.90;;;-141.84;100.00;117356.25;5054493;28;20419;-55
2024/01/06 07:55:34;;;;;;;11.13;7.37;;;3.70;99.90;;;-141.84;100.00;117089.69;5054008;28;20225;-57
2024/01/06 07:58:03;;;;;;;11.83;7.30;;;3.80;99.90;;;-141.84;100.00;112294.34;5055230;28;20256;-56
2024/01/06 08:00:31;;;;;;;9.53;7.23;;;3.80;99.90;;;-141.84;100.00;113093.19;5054564;28;20266;-57
2024/01/06 08:03:00;;;;;;;10.20;7.17;;;3.80;99.90;;;-141.84;100.00;113359.50;5045673;28;20255;-56
2024/01/06 08:05:28;;;;;;;7.90;6.60;;;3.90;99.90;;;-141.84;100.00;113359.50;5054031;28;20221;-55
2024/01/06 08:07:56;;;;;;;9.27;7.70;;;3.90;99.90;;;-141.84;100.00;113625.81;5053801;28;20290;-58
2024/01/06 08:10:26;;;;;;;7.53;6.80;;;3.90;99.90;;;-141.84;100.00;113892.16;5046287;28;20328;-58
2024/01/06 08:12:54;;;;;;;7.83;6.77;;;4.00;99.90;;;-141.84;100.00;114158.53;5054799;28;20225;-57
2024/01/06 08:15:23;;;;;;;10.73;6.70;;;4.00;99.90;;;-141.84;100.00;114424.91;5053680;28;20232;-53
2024/01/06 08:17:51;;;;;;;9.00;6.20;;;4.10;99.90;;;-141.84;100.00;114957.72;5053867;28;20307;-55
2024/01/06 08:20:20;;;;;;;8.33;6.47;;;4.10;99.90;;;-141.84;100.00;115757.06;5053596;28;20221;-55
2024/01/06 08:22:48;;;;;;;11.17;7.20;;;4.10;99.90;;;-141.84;100.00;114957.72;5053815;28;20308;-54
2024/01/06 08:25:17;;;;;;;9.47;7.33;;;4.20;99.90;;;-141.84;100.00;112560.63;5054135;28;20189;-57
2024/01/06 08:27:47;;;;;;;7.53;6.67;;;4.20;99.90;;;-141.84;100.00;108568.56;5054297;28;20414;-56
2024/01/06 08:30:16;;;;;;;10.13;6.70;;;4.30;99.90;;;-141.84;100.00;99003.56;5053206;28;20222;-57
2024/01/06 08:32:44;;;;;;;8.63;6.13;;;4.30;99.90;;;-141.84;100.00;95820.25;5053762;28;20221;-53
2024/01/06 08:35:16;;;;;;;9.63;6.93;;;4.40;99.90;;;-141.84;100.00;100861.66;5056497;28;20229;-57
2024/01/06 08:37:45;;;;;;;7.63;6.13;;;4.40;99.90;;;-141.84;100.00;100330.69;5053631;28;20244;-53
2024/01/06 08:40:13;;;;;;;11.93;7.60;;;4.50;99.90;;;-141.84;100.00;99534.38;5050630;28;20201;-54
2024/01/06 08:42:41;;;;;;;10.77;6.90;;;4.50;99.90;;;-141.84;100.00;98207.50;5053895;28;20223;-54
2024/01/06 08:45:11;;;;;;;11.40;7.33;;;4.50;99.90;;;-141.84;100.00;100596.16;5053125;28;20214;-56
2024/01/06 08:47:39;;;;;;;7.83;6.53;;;4.50;99.90;;;-141.84;100.00;97942.19;5053304;28;20336;-56
2024/01/06 08:50:09;;;;;;;9.07;7.10;;;4.60;99.90;;;-141.84;94.90;79941.19;5053201;28;20296;-57
2024/01/06 08:52:37;;;;;;;10.27;6.83;;;4.70;99.90;;;-141.84;95.36;79148.88;5052751;28;20258;-56
2024/01/06 08:55:07;;;;;;;7.80;6.90;;;4.70;99.90;;;-141.84;93.12;73870.81;5053322;28;20301;-55
2024/01/06 08:57:35;;;;;;;10.27;6.77;;;4.70;99.90;;;-141.84;90.43;59129.22;5053564;28;20201;-59
2024/01/06 09:00:05;;;;;;;7.77;6.20;;;4.70;99.90;;;-141.84;91.51;63335.53;5052545;28;20291;-57
2024/01/06 09:02:35;;;;;;;8.37;6.03;;;4.70;99.90;;;-141.84;93.13;70180.31;5053246;28;20236;-57
2024/01/06 09:05:04;;;;;;;8.27;5.77;;;4.80;99.90;;;-141.84;95.31;78356.72;5053118;28;20260;-57
2024/01/06 09:07:32;;;;;;;8.60;6.63;;;4.70;99.90;;;-141.84;93.60;73079.69;5052864;28;20275;-56
2024/01/06 09:10:01;;;;;;;7.63;6.47;;;4.80;99.90;;;-141.84;92.88;70970.84;5053525;28;20198;-54
2024/01/06 09:12:30;;;;;;;7.43;5.70;;;4.80;99.90;;;-141.84;92.79;69653.38;5053458;28;20217;-55
2024/01/06 09:14:58;;;;;;;7.40;6.20;;;4.80;99.90;;;-141.84;93.89;74134.56;5053182;28;20241;-57
2024/01/06 09:17:27;;;;;;;6.37;5.60;;;4.80;99.90;;;-141.84;94.07;74925.88;5052642;28;20810;-60
2024/01/06 09:19:56;;;;;;;7.93;5.70;;;4.90;99.90;;;-141.84;94.51;76772.88;5052875;28;20221;-60
2024/01/06 09:22:25;;;;;;;8.27;5.53;;;4.90;99.90;;;-141.84;93.80;74662.09;5052351;28;21115;-59
2024/01/06 09:24:53;;;;;;;7.97;5.30;;;4.90;99.90;;;-141.84;94.03;74925.88;5052961;28;20190;-59
2024/01/06 09:27:22;;;;;;;8.00;5.67;;;5.00;99.90;;;-141.84;92.58;69916.81;5046110;28;20245;-59
2024/01/06 09:29:50;;;;;;;7.87;5.73;;;5.00;99.90;;;-141.84;91.87;67546.31;5052556;28;20236;-62
2024/01/06 09:32:19;;;;;;;7.10;5.67;;;5.10;99.90;;;-141.84;90.61;60443.22;5024661;28;20264;-61
2024/01/06 09:34:47;;;;;;;9.50;6.33;;;5.10;99.90;;;-141.84;90.36;59917.56;5049936;28;20322;-60
2024/01/06 09:37:17;;;;;;;11.43;7.80;;;5.10;99.90;;;-141.84;85.59;30235.47;5044344;28;20599;-60
2024/01/06 09:39:45;;;;;;;10.67;7.97;;;5.10;99.90;;;-141.84;85.06;26736.09;5045397;28;20288;-60
2024/01/06 09:42:14;;;;;;;9.13;8.17;;;5.10;99.90;;;-141.84;85.66;31696.81;5044162;28;20719;-60
2024/01/06 09:44:43;;;;;;;11.70;9.00;;;5.10;99.90;;;-141.84;84.55;25020.16;5043851;28;20218;-60
2024/01/06 09:47:13;;;;;;;12.77;8.23;;;5.10;99.90;;;-141.84;86.34;33268.88;5051915;28;20784;-60
2024/01/06 09:49:50;;;;;;;11.60;9.40;;;5.10;99.90;;;-141.84;87.28;38203.16;5052073;28;20240;-60
2024/01/06 09:52:23;;;;;;;13.93;9.50;;;5.00;99.90;;;-141.84;87.83;42871.75;5052108;28;20216;-59
2024/01/06 09:54:55;;;;;;;10.70;8.70;;;4.90;99.90;;;-141.84;87.53;39522.47;5045163;28;20209;-59
2024/01/06 09:57:25;;;;;;;15.70;9.93;;;4.80;99.90;;;-141.84;87.46;41007.75;5051938;28;20218;-59
2024/01/06 09:59:54;;;;;;;13.60;10.27;;;4.80;99.90;;;-141.84;86.94;39032.28;5044324;28;20221;-60
2024/01/06 10:02:22;;;;;;;12.93;9.70;;;4.80;99.90;;;-141.84;88.24;44180.38;5045184;28;20271;-60
2024/01/06 10:04:51;;;;;;;11.53;9.47;;;4.70;99.90;;;-141.84;89.75;53877.56;5050922;28;20231;-60
2024/01/06 10:07:21;;;;;;;14.37;9.60;;;4.60;99.90;;;-141.84;89.96;54402.44;5051360;28;20639;-60
2024/01/06 10:09:49;;;;;;;13.97;9.50;;;4.60;99.90;;;-141.84;88.40;47060.84;5052477;28;20247;-60
2024/01/06 10:12:18;;;;;;;13.23;9.93;;;4.60;99.90;;;-141.84;88.99;49157.03;5050621;28;20232;-60